sensor_id;sensor_type;location;lat;lon;timestamp;P1;durP1;ratioP1;P2;durP2;ratioP2
81969;SDS011;71469;51.826;4.394;2024-03-08T10:49:11;17.25;;;10.80;;
81969;SDS011;71469;51.826;4.394;2024-03-08T10:51:42;22.92;;;12.77;;
81969;SDS011;71469;51.826;4.394;2024-03-08T10:54:09;21.77;;;12.63;;
81969;SDS011;71469;51.826;4.394;2024-03-08T11:09:35;19.63;;;12.23;;
81969;SDS011;71469;51.826;4.394;2024-03-08T11:12:21;21.40;;;11.55;;
81969;SDS011;71469;51.826;4.394;2024-03-08T11:15:00;20.75;;;12.30;;
81969;SDS011;71469;51.826;4.394;2024-03-08T11:17:50;20.92;;;12.55;;
81969;SDS011;71469;51.826;4.394;2024-03-08T11:20:23;20.48;;;12.57;;
81969;SDS011;71469;51.826;4.394;2024-03-08T11:23:03;22.35;;;10.90;;
81969;SDS011;71469;51.826;4.394;2024-03-08T11:25:53;19.98;;;11.63;;
81969;SDS011;71469;51.826;4.394;2024-03-08T11:28:38;29.48;;;11.98;;
81969;SDS011;71469;51.826;4.394;2024-03-08T11:33:30;20.27;;;11.70;;
81969;SDS011;71469;51.826;4.394;2024-03-08T11:36:12;17.55;;;11.88;;
81969;SDS011;71469;51.826;4.394;2024-03-08T11:39:00;21.02;;;11.35;;
81969;SDS011;71469;51.826;4.394;2024-03-08T11:41:34;21.15;;;12.27;;
81969;SDS011;71469;51.826;4.394;2024-03-08T11:46:31;22.13;;;12.57;;
81969;SDS011;71469;51.826;4.394;2024-03-08T11:51:22;17.02;;;11.60;;
81969;SDS011;71469;51.826;4.394;2024-03-08T11:53:49;19.17;;;10.20;;
81969;SDS011;71469;51.826;4.394;2024-03-08T11:56:15;16.13;;;10.35;;
81969;SDS011;71469;51.826;4.394;2024-03-08T11:58:41;16.20;;;10.55;;
81969;SDS011;71469;51.826;4.394;2024-03-08T12:03:34;15.73;;;10.18;;
81969;SDS011;71469;51.826;4.394;2024-03-08T12:19:54;16.35;;;9.95;;
81969;SDS011;71469;51.826;4.394;2024-03-08T12:25:02;20.00;;;9.88;;
81969;SDS011;71469;51.826;4.394;2024-03-08T12:27:35;17.05;;;9.75;;
81969;SDS011;71469;51.826;4.394;2024-03-08T12:30:18;19.02;;;10.23;;
81969;SDS011;71469;51.826;4.394;2024-03-08T12:32:58;18.05;;;10.65;;
81969;SDS011;71469;51.826;4.394;2024-03-08T12:35:25;18.23;;;10.90;;
81969;SDS011;71469;51.826;4.394;2024-03-08T12:37:53;16.60;;;10.05;;
81969;SDS011;71469;51.826;4.394;2024-03-08T12:40:30;17.88;;;10.07;;
81969;SDS011;71469;51.826;4.394;2024-03-08T12:42:56;16.90;;;10.57;;
81969;SDS011;71469;51.826;4.394;2024-03-08T12:45:25;17.25;;;11.05;;
81969;SDS011;71469;51.826;4.394;2024-03-08T12:47:51;16.83;;;9.93;;
81969;SDS011;71469;51.826;4.394;2024-03-08T12:50:18;17.80;;;10.45;;
81969;SDS011;71469;51.826;4.394;2024-03-08T12:52:44;14.15;;;8.77;;
81969;SDS011;71469;51.826;4.394;2024-03-08T12:57:34;16.07;;;9.53;;
81969;SDS011;71469;51.826;4.394;2024-03-08T13:00:03;15.75;;;9.23;;
81969;SDS011;71469;51.826;4.394;2024-03-08T13:02:29;17.85;;;10.18;;
81969;SDS011;71469;51.826;4.394;2024-03-08T13:04:57;13.93;;;9.00;;
81969;SDS011;71469;51.826;4.394;2024-03-08T13:07:24;16.83;;;10.52;;
81969;SDS011;71469;51.826;4.394;2024-03-08T13:09:53;16.88;;;10.18;;
81969;SDS011;71469;51.826;4.394;2024-03-08T13:12:20;18.35;;;9.68;;
81969;SDS011;71469;51.826;4.394;2024-03-08T13:14:46;19.95;;;10.88;;
81969;SDS011;71469;51.826;4.394;2024-03-08T13:17:15;15.95;;;9.20;;
81969;SDS011;71469;51.826;4.394;2024-03-08T13:28:28;17.52;;;8.98;;
81969;SDS011;71469;51.826;4.394;2024-03-08T13:31:04;15.15;;;9.18;;
81969;SDS011;71469;51.826;4.394;2024-03-08T13:33:35;19.20;;;8.85;;
81969;SDS011;71469;51.826;4.394;2024-03-08T13:36:08;14.30;;;8.90;;
81969;SDS011;71469;51.826;4.394;2024-03-08T13:38:44;12.68;;;8.77;;
81969;SDS011;71469;51.826;4.394;2024-03-08T13:41:11;16.45;;;10.18;;
81969;SDS011;71469;51.826;4.394;2024-03-08T13:43:39;14.55;;;9.40;;
81969;SDS011;71469;51.826;4.394;2024-03-08T13:46:08;16.13;;;9.77;;
81969;SDS011;71469;51.826;4.394;2024-03-08T13:48:35;17.33;;;9.73;;
81969;SDS011;71469;51.826;4.394;2024-03-08T13:51:02;14.77;;;9.35;;
81969;SDS011;71469;51.826;4.394;2024-03-08T13:53:28;15.30;;;9.02;;
81969;SDS011;71469;51.826;4.394;2024-03-08T13:55:54;14.77;;;9.60;;
81969;SDS011;71469;51.826;4.394;2024-03-08T13:58:21;15.98;;;9.73;;
81969;SDS011;71469;51.826;4.394;2024-03-08T14:00:47;17.65;;;9.57;;
81969;SDS011;71469;51.826;4.394;2024-03-08T14:03:15;18.05;;;10.20;;
81969;SDS011;71469;51.826;4.394;2024-03-08T14:05:43;14.35;;;9.65;;
81969;SDS011;71469;51.826;4.394;2024-03-08T14:08:09;17.48;;;10.75;;
81969;SDS011;71469;51.826;4.394;2024-03-08T14:10:37;17.27;;;10.30;;
81969;SDS011;71469;51.826;4.394;2024-03-08T14:13:04;17.20;;;9.70;;
81969;SDS011;71469;51.826;4.394;2024-03-08T14:15:33;18.95;;;11.43;;
81969;SDS011;71469;51.826;4.394;2024-03-08T14:17:59;15.82;;;9.55;;
81969;SDS011;71469;51.826;4.394;2024-03-08T14:20:26;16.27;;;9.85;;
81969;SDS011;71469;51.826;4.394;2024-03-08T14:22:52;15.10;;;10.02;;
81969;SDS011;71469;51.826;4.394;2024-03-08T14:25:19;17.42;;;10.48;;
81969;SDS011;71469;51.826;4.394;2024-03-08T14:39:07;18.83;;;10.50;;
81969;SDS011;71469;51.826;4.394;2024-03-08T14:41:33;17.27;;;10.15;;
81969;SDS011;71469;51.826;4.394;2024-03-08T14:43:58;14.65;;;10.20;;
81969;SDS011;71469;51.826;4.394;2024-03-08T14:46:24;16.52;;;11.43;;
81969;SDS011;71469;51.826;4.394;2024-03-08T14:48:52;14.00;;;10.27;;
81969;SDS011;71469;51.826;4.394;2024-03-08T14:51:18;18.52;;;11.77;;
81969;SDS011;71469;51.826;4.394;2024-03-08T14:53:51;18.05;;;10.90;;
81969;SDS011;71469;51.826;4.394;2024-03-08T14:56:17;17.90;;;11.57;;
81969;SDS011;71469;51.826;4.394;2024-03-08T14:58:43;16.30;;;10.13;;
81969;SDS011;71469;51.826;4.394;2024-03-08T15:01:10;15.43;;;10.35;;
81969;SDS011;71469;51.826;4.394;2024-03-08T15:03:39;16.45;;;10.57;;
81969;SDS011;71469;51.826;4.394;2024-03-08T15:06:05;15.68;;;9.75;;
81969;SDS011;71469;51.826;4.394;2024-03-08T15:08:38;17.25;;;11.73;;
81969;SDS011;71469;51.826;4.394;2024-03-08T15:11:05;15.25;;;10.45;;
81969;SDS011;71469;51.826;4.394;2024-03-08T15:13:34;14.82;;;10.23;;
81969;SDS011;71469;51.826;4.394;2024-03-08T15:16:06;20.05;;;11.45;;
81969;SDS011;71469;51.826;4.394;2024-03-08T15:18:33;15.15;;;10.50;;
81969;SDS011;71469;51.826;4.394;2024-03-08T15:21:00;16.58;;;11.18;;
81969;SDS011;71469;51.826;4.394;2024-03-08T15:23:25;17.15;;;11.15;;
81969;SDS011;71469;51.826;4.394;2024-03-08T15:25:51;15.43;;;10.50;;
81969;SDS011;71469;51.826;4.394;2024-03-08T15:28:17;16.98;;;11.40;;
81969;SDS011;71469;51.826;4.394;2024-03-08T15:30:48;19.23;;;11.82;;
81969;SDS011;71469;51.826;4.394;2024-03-08T15:33:20;15.60;;;11.32;;
81969;SDS011;71469;51.826;4.394;2024-03-08T15:35:50;20.25;;;11.07;;
81969;SDS011;71469;51.826;4.394;2024-03-08T15:38:24;18.30;;;10.93;;
81969;SDS011;71469;51.826;4.394;2024-03-08T15:40:52;17.58;;;11.32;;
81969;SDS011;71469;51.826;4.394;2024-03-08T15:43:19;17.50;;;11.43;;
81969;SDS011;71469;51.826;4.394;2024-03-08T15:45:45;18.80;;;12.07;;
81969;SDS011;71469;51.826;4.394;2024-03-08T15:48:11;17.48;;;11.68;;
81969;SDS011;71469;51.826;4.394;2024-03-08T15:50:37;15.75;;;10.23;;
81969;SDS011;71469;51.826;4.394;2024-03-08T15:53:03;19.00;;;12.38;;
81969;SDS011;71469;51.826;4.394;2024-03-08T15:55:29;17.40;;;11.48;;
81969;SDS011;71469;51.826;4.394;2024-03-08T15:57:54;17.33;;;11.47;;
81969;SDS011;71469;51.826;4.394;2024-03-08T16:00:20;20.52;;;12.27;;
81969;SDS011;71469;51.826;4.394;2024-03-08T16:03:02;19.02;;;12.43;;
81969;SDS011;71469;51.826;4.394;2024-03-08T16:05:32;17.63;;;11.15;;
81969;SDS011;71469;51.826;4.394;2024-03-08T16:08:00;17.67;;;11.63;;
81969;SDS011;71469;51.826;4.394;2024-03-08T16:10:27;17.25;;;11.32;;
81969;SDS011;71469;51.826;4.394;2024-03-08T16:12:55;19.45;;;11.52;;
81969;SDS011;71469;51.826;4.394;2024-03-08T16:15:21;20.67;;;11.13;;
81969;SDS011;71469;51.826;4.394;2024-03-08T16:17:47;18.27;;;12.25;;
81969;SDS011;71469;51.826;4.394;2024-03-08T16:20:13;17.95;;;10.48;;
81969;SDS011;71469;51.826;4.394;2024-03-08T16:22:45;17.77;;;10.80;;
81969;SDS011;71469;51.826;4.394;2024-03-08T16:25:10;21.15;;;12.02;;
81969;SDS011;71469;51.826;4.394;2024-03-08T16:27:39;19.55;;;11.93;;
81969;SDS011;71469;51.826;4.394;2024-03-08T16:30:06;18.25;;;11.68;;
81969;SDS011;71469;51.826;4.394;2024-03-08T16:35:15;20.00;;;11.25;;
81969;SDS011;71469;51.826;4.394;2024-03-08T16:37:43;17.70;;;10.65;;
81969;SDS011;71469;51.826;4.394;2024-03-08T16:40:09;19.38;;;11.00;;
81969;SDS011;71469;51.826;4.394;2024-03-08T16:42:42;18.98;;;12.57;;
81969;SDS011;71469;51.826;4.394;2024-03-08T23:50:00;27.60;;;11.77;;
81969;SDS011;71469;51.826;4.394;2024-03-08T23:57:08;21.73;;;11.40;;
